sensor_id;sensor_type;location;lat;lon;timestamp;P1;durP1;ratioP1;P2;durP2;ratioP2
8407;SDS011;4241;48.452;9.216;2022-10-17T00:01:14;471.27;;;183.00;;
8407;SDS011;4241;48.452;9.216;2022-10-17T00:03:40;470.53;;;184.47;;
8407;SDS011;4241;48.452;9.216;2022-10-17T00:06:08;466.60;;;178.93;;
8407;SDS011;4241;48.452;9.216;2022-10-17T00:08:38;470.50;;;183.27;;
8407;SDS011;4241;48.452;9.216;2022-10-17T00:11:07;465.50;;;176.10;;
8407;SDS011;4241;48.452;9.216;2022-10-17T00:13:37;468.73;;;177.20;;
8407;SDS011;4241;48.452;9.216;2022-10-17T00:16:05;469.80;;;181.13;;
8407;SDS011;4241;48.452;9.216;2022-10-17T00:18:32;468.60;;;178.20;;
8407;SDS011;4241;48.452;9.216;2022-10-17T00:20:59;467.13;;;178.03;;
8407;SDS011;4241;48.452;9.216;2022-10-17T00:23:26;471.83;;;180.43;;
8407;SDS011;4241;48.452;9.216;2022-10-17T00:25:59;466.93;;;176.57;;
8407;SDS011;4241;48.452;9.216;2022-10-17T00:28:27;467.70;;;175.77;;
8407;SDS011;4241;48.452;9.216;2022-10-17T00:30:54;466.20;;;174.67;;
8407;SDS011;4241;48.452;9.216;2022-10-17T00:33:21;468.37;;;178.00;;
8407;SDS011;4241;48.452;9.216;2022-10-17T00:35:48;468.30;;;177.23;;
8407;SDS011;4241;48.452;9.216;2022-10-17T00:38:15;467.70;;;177.07;;
8407;SDS011;4241;48.452;9.216;2022-10-17T00:40:42;466.57;;;176.73;;
8407;SDS011;4241;48.452;9.216;2022-10-17T00:43:11;467.40;;;176.47;;
8407;SDS011;4241;48.452;9.216;2022-10-17T00:45:41;467.40;;;177.60;;
8407;SDS011;4241;48.452;9.216;2022-10-17T00:48:08;468.17;;;177.40;;
8407;SDS011;4241;48.452;9.216;2022-10-17T00:50:37;466.37;;;175.73;;
8407;SDS011;4241;48.452;9.216;2022-10-17T00:53:06;466.63;;;176.93;;
8407;SDS011;4241;48.452;9.216;2022-10-17T00:55:35;467.87;;;178.40;;
8407;SDS011;4241;48.452;9.216;2022-10-17T00:58:04;467.20;;;175.40;;
8407;SDS011;4241;48.452;9.216;2022-10-17T01:00:33;466.67;;;172.37;;
8407;SDS011;4241;48.452;9.216;2022-10-17T01:03:01;467.33;;;174.57;;
8407;SDS011;4241;48.452;9.216;2022-10-17T01:05:27;470.90;;;180.13;;
8407;SDS011;4241;48.452;9.216;2022-10-17T01:07:55;468.03;;;175.23;;
8407;SDS011;4241;48.452;9.216;2022-10-17T01:10:22;466.90;;;175.40;;
8407;SDS011;4241;48.452;9.216;2022-10-17T01:12:56;466.33;;;173.87;;
8407;SDS011;4241;48.452;9.216;2022-10-17T01:15:31;467.10;;;174.33;;
8407;SDS011;4241;48.452;9.216;2022-10-17T01:18:12;466.03;;;171.77;;
8407;SDS011;4241;48.452;9.216;2022-10-17T01:20:58;466.67;;;173.67;;
8407;SDS011;4241;48.452;9.216;2022-10-17T01:26:52;466.60;;;173.97;;
8407;SDS011;4241;48.452;9.216;2022-10-17T01:29:33;463.87;;;172.07;;
8407;SDS011;4241;48.452;9.216;2022-10-17T01:32:18;470.33;;;176.20;;
8407;SDS011;4241;48.452;9.216;2022-10-17T01:34:51;464.50;;;171.30;;
8407;SDS011;4241;48.452;9.216;2022-10-17T01:37:25;466.77;;;174.57;;
8407;SDS011;4241;48.452;9.216;2022-10-17T01:39:57;463.17;;;171.77;;
8407;SDS011;4241;48.452;9.216;2022-10-17T01:42:29;471.30;;;177.97;;
8407;SDS011;4241;48.452;9.216;2022-10-17T01:45:01;470.43;;;178.37;;
8407;SDS011;4241;48.452;9.216;2022-10-17T01:47:33;465.80;;;172.10;;
8407;SDS011;4241;48.452;9.216;2022-10-17T01:50:02;465.97;;;172.53;;
8407;SDS011;4241;48.452;9.216;2022-10-17T01:52:34;470.93;;;177.27;;
8407;SDS011;4241;48.452;9.216;2022-10-17T01:55:05;465.80;;;171.93;;
8407;SDS011;4241;48.452;9.216;2022-10-17T01:57:37;461.90;;;168.03;;
8407;SDS011;4241;48.452;9.216;2022-10-17T02:00:08;466.13;;;171.63;;
8407;SDS011;4241;48.452;9.216;2022-10-17T02:02:41;464.97;;;171.60;;
8407;SDS011;4241;48.452;9.216;2022-10-17T02:05:10;466.60;;;171.60;;
8407;SDS011;4241;48.452;9.216;2022-10-17T02:07:39;464.10;;;169.77;;
8407;SDS011;4241;48.452;9.216;2022-10-17T02:10:08;464.93;;;170.37;;
8407;SDS011;4241;48.452;9.216;2022-10-17T02:12:44;463.57;;;168.07;;
8407;SDS011;4241;48.452;9.216;2022-10-17T02:18:15;463.70;;;166.80;;
8407;SDS011;4241;48.452;9.216;2022-10-17T02:20:52;462.80;;;167.23;;
8407;SDS011;4241;48.452;9.216;2022-10-17T02:23:24;465.10;;;167.40;;
8407;SDS011;4241;48.452;9.216;2022-10-17T02:26:02;462.23;;;166.93;;
8407;SDS011;4241;48.452;9.216;2022-10-17T02:28:35;467.07;;;169.10;;
8407;SDS011;4241;48.452;9.216;2022-10-17T02:31:07;464.10;;;167.83;;
8407;SDS011;4241;48.452;9.216;2022-10-17T02:33:42;463.87;;;167.27;;
8407;SDS011;4241;48.452;9.216;2022-10-17T02:36:13;460.20;;;163.77;;
8407;SDS011;4241;48.452;9.216;2022-10-17T02:38:44;461.20;;;162.47;;
8407;SDS011;4241;48.452;9.216;2022-10-17T02:41:12;460.33;;;162.47;;
8407;SDS011;4241;48.452;9.216;2022-10-17T02:43:41;460.57;;;160.77;;
8407;SDS011;4241;48.452;9.216;2022-10-17T02:46:11;461.40;;;162.50;;
8407;SDS011;4241;48.452;9.216;2022-10-17T02:48:47;459.10;;;160.47;;
8407;SDS011;4241;48.452;9.216;2022-10-17T02:51:18;461.23;;;162.43;;
8407;SDS011;4241;48.452;9.216;2022-10-17T02:53:54;458.43;;;159.87;;
8407;SDS011;4241;48.452;9.216;2022-10-17T02:56:28;461.10;;;162.53;;
8407;SDS011;4241;48.452;9.216;2022-10-17T02:59:00;462.60;;;163.47;;
8407;SDS011;4241;48.452;9.216;2022-10-17T03:01:30;458.77;;;160.27;;
8407;SDS011;4241;48.452;9.216;2022-10-17T03:04:05;454.03;;;154.70;;
8407;SDS011;4241;48.452;9.216;2022-10-17T03:06:33;457.03;;;158.30;;
8407;SDS011;4241;48.452;9.216;2022-10-17T03:09:00;459.13;;;161.10;;
8407;SDS011;4241;48.452;9.216;2022-10-17T03:11:27;457.57;;;158.27;;
8407;SDS011;4241;48.452;9.216;2022-10-17T03:13:53;458.20;;;157.57;;
8407;SDS011;4241;48.452;9.216;2022-10-17T03:16:20;456.33;;;156.53;;
8407;SDS011;4241;48.452;9.216;2022-10-17T03:18:47;458.03;;;156.80;;
8407;SDS011;4241;48.452;9.216;2022-10-17T03:21:15;457.80;;;157.03;;
8407;SDS011;4241;48.452;9.216;2022-10-17T03:23:42;458.13;;;156.97;;
8407;SDS011;4241;48.452;9.216;2022-10-17T03:26:09;458.10;;;157.17;;
8407;SDS011;4241;48.452;9.216;2022-10-17T03:28:36;459.13;;;158.90;;
8407;SDS011;4241;48.452;9.216;2022-10-17T03:31:06;455.47;;;156.23;;
8407;SDS011;4241;48.452;9.216;2022-10-17T03:33:34;456.93;;;156.37;;
8407;SDS011;4241;48.452;9.216;2022-10-17T03:36:03;457.73;;;157.90;;
8407;SDS011;4241;48.452;9.216;2022-10-17T03:38:33;457.87;;;156.93;;
8407;SDS011;4241;48.452;9.216;2022-10-17T03:41:00;456.73;;;156.00;;
8407;SDS011;4241;48.452;9.216;2022-10-17T03:43:27;457.27;;;157.03;;
8407;SDS011;4241;48.452;9.216;2022-10-17T03:45:54;456.70;;;157.50;;
8407;SDS011;4241;48.452;9.216;2022-10-17T03:48:22;456.67;;;155.77;;
8407;SDS011;4241;48.452;9.216;2022-10-17T03:50:49;458.63;;;157.00;;
8407;SDS011;4241;48.452;9.216;2022-10-17T03:53:16;456.57;;;156.10;;
8407;SDS011;4241;48.452;9.216;2022-10-17T03:55:45;456.00;;;154.77;;
8407;SDS011;4241;48.452;9.216;2022-10-17T03:58:12;455.40;;;156.30;;
8407;SDS011;4241;48.452;9.216;2022-10-17T04:00:38;455.60;;;155.67;;
8407;SDS011;4241;48.452;9.216;2022-10-17T04:03:05;455.57;;;155.20;;
8407;SDS011;4241;48.452;9.216;2022-10-17T04:05:32;455.77;;;155.30;;
8407;SDS011;4241;48.452;9.216;2022-10-17T04:07:59;456.83;;;156.10;;
8407;SDS011;4241;48.452;9.216;2022-10-17T04:10:26;458.00;;;157.37;;
8407;SDS011;4241;48.452;9.216;2022-10-17T04:12:54;453.20;;;151.23;;
8407;SDS011;4241;48.452;9.216;2022-10-17T04:15:20;455.63;;;154.83;;
8407;SDS011;4241;48.452;9.216;2022-10-17T04:17:47;457.17;;;156.83;;
8407;SDS011;4241;48.452;9.216;2022-10-17T04:20:14;456.47;;;158.40;;
8407;SDS011;4241;48.452;9.216;2022-10-17T04:22:41;454.60;;;155.23;;
8407;SDS011;4241;48.452;9.216;2022-10-17T04:25:08;457.60;;;156.67;;
8407;SDS011;4241;48.452;9.216;2022-10-17T04:27:35;450.90;;;152.10;;
8407;SDS011;4241;48.452;9.216;2022-10-17T04:30:03;454.87;;;154.63;;
8407;SDS011;4241;48.452;9.216;2022-10-17T04:32:30;461.67;;;161.90;;
8407;SDS011;4241;48.452;9.216;2022-10-17T04:35:01;465.70;;;165.40;;
8407;SDS011;4241;48.452;9.216;2022-10-17T04:37:28;454.73;;;154.27;;
8407;SDS011;4241;48.452;9.216;2022-10-17T04:39:55;455.03;;;154.03;;
8407;SDS011;4241;48.452;9.216;2022-10-17T04:42:22;460.83;;;159.40;;
8407;SDS011;4241;48.452;9.216;2022-10-17T04:44:48;458.13;;;158.50;;
8407;SDS011;4241;48.452;9.216;2022-10-17T04:47:17;456.90;;;156.87;;
8407;SDS011;4241;48.452;9.216;2022-10-17T04:49:43;457.87;;;156.30;;
8407;SDS011;4241;48.452;9.216;2022-10-17T04:52:10;457.60;;;156.80;;
8407;SDS011;4241;48.452;9.216;2022-10-17T04:54:37;453.60;;;152.80;;
8407;SDS011;4241;48.452;9.216;2022-10-17T04:57:04;455.00;;;155.33;;
8407;SDS011;4241;48.452;9.216;2022-10-17T04:59:30;457.57;;;158.57;;
8407;SDS011;4241;48.452;9.216;2022-10-17T05:01:57;455.93;;;155.27;;
8407;SDS011;4241;48.452;9.216;2022-10-17T05:04:25;454.77;;;154.90;;
8407;SDS011;4241;48.452;9.216;2022-10-17T05:06:52;453.63;;;154.47;;
8407;SDS011;4241;48.452;9.216;2022-10-17T05:09:19;464.53;;;163.27;;
8407;SDS011;4241;48.452;9.216;2022-10-17T05:11:46;457.40;;;156.23;;
8407;SDS011;4241;48.452;9.216;2022-10-17T05:14:13;451.40;;;151.63;;
8407;SDS011;4241;48.452;9.216;2022-10-17T05:16:41;450.73;;;150.73;;
8407;SDS011;4241;48.452;9.216;2022-10-17T05:19:07;452.13;;;150.90;;
8407;SDS011;4241;48.452;9.216;2022-10-17T05:21:36;454.47;;;153.43;;
8407;SDS011;4241;48.452;9.216;2022-10-17T05:24:04;454.60;;;154.47;;
8407;SDS011;4241;48.452;9.216;2022-10-17T05:26:31;455.27;;;155.17;;
8407;SDS011;4241;48.452;9.216;2022-10-17T05:28:58;454.73;;;152.77;;
8407;SDS011;4241;48.452;9.216;2022-10-17T05:31:26;451.70;;;151.90;;
8407;SDS011;4241;48.452;9.216;2022-10-17T05:33:54;452.87;;;153.67;;
8407;SDS011;4241;48.452;9.216;2022-10-17T05:36:21;454.43;;;153.00;;
8407;SDS011;4241;48.452;9.216;2022-10-17T05:38:49;448.77;;;149.37;;
8407;SDS011;4241;48.452;9.216;2022-10-17T05:41:17;450.93;;;149.90;;
8407;SDS011;4241;48.452;9.216;2022-10-17T05:43:44;450.50;;;150.73;;
8407;SDS011;4241;48.452;9.216;2022-10-17T05:46:11;457.50;;;156.40;;
8407;SDS011;4241;48.452;9.216;2022-10-17T05:48:38;451.37;;;152.07;;
8407;SDS011;4241;48.452;9.216;2022-10-17T05:51:06;452.57;;;152.43;;
8407;SDS011;4241;48.452;9.216;2022-10-17T05:53:35;456.93;;;155.97;;
8407;SDS011;4241;48.452;9.216;2022-10-17T05:56:06;454.90;;;154.33;;
8407;SDS011;4241;48.452;9.216;2022-10-17T05:58:33;451.97;;;152.37;;
8407;SDS011;4241;48.452;9.216;2022-10-17T06:01:01;452.83;;;153.03;;
8407;SDS011;4241;48.452;9.216;2022-10-17T06:03:30;455.57;;;154.80;;
8407;SDS011;4241;48.452;9.216;2022-10-17T06:06:01;453.20;;;152.57;;
8407;SDS011;4241;48.452;9.216;2022-10-17T06:08:29;456.07;;;156.23;;
8407;SDS011;4241;48.452;9.216;2022-10-17T06:10:56;452.80;;;152.53;;
8407;SDS011;4241;48.452;9.216;2022-10-17T06:13:24;453.13;;;153.80;;
8407;SDS011;4241;48.452;9.216;2022-10-17T06:15:51;453.23;;;152.73;;
8407;SDS011;4241;48.452;9.216;2022-10-17T06:18:18;453.03;;;153.93;;
8407;SDS011;4241;48.452;9.216;2022-10-17T06:20:45;455.90;;;155.87;;
8407;SDS011;4241;48.452;9.216;2022-10-17T06:23:11;455.60;;;154.97;;
8407;SDS011;4241;48.452;9.216;2022-10-17T06:25:38;453.83;;;155.07;;
8407;SDS011;4241;48.452;9.216;2022-10-17T06:28:05;452.57;;;152.50;;
8407;SDS011;4241;48.452;9.216;2022-10-17T06:30:33;456.43;;;155.43;;
8407;SDS011;4241;48.452;9.216;2022-10-17T06:33:03;453.77;;;153.47;;
8407;SDS011;4241;48.452;9.216;2022-10-17T06:35:30;453.67;;;153.87;;
8407;SDS011;4241;48.452;9.216;2022-10-17T06:37:57;454.53;;;155.70;;
8407;SDS011;4241;48.452;9.216;2022-10-17T06:40:23;456.40;;;157.00;;
8407;SDS011;4241;48.452;9.216;2022-10-17T06:42:51;457.33;;;158.30;;
8407;SDS011;4241;48.452;9.216;2022-10-17T06:45:17;470.90;;;170.90;;
8407;SDS011;4241;48.452;9.216;2022-10-17T06:47:45;455.73;;;156.20;;
8407;SDS011;4241;48.452;9.216;2022-10-17T06:50:13;454.77;;;154.10;;
8407;SDS011;4241;48.452;9.216;2022-10-17T06:52:40;453.73;;;154.57;;
8407;SDS011;4241;48.452;9.216;2022-10-17T06:55:07;454.87;;;154.93;;
8407;SDS011;4241;48.452;9.216;2022-10-17T06:57:34;455.47;;;154.87;;
8407;SDS011;4241;48.452;9.216;2022-10-17T07:00:01;457.37;;;157.90;;
8407;SDS011;4241;48.452;9.216;2022-10-17T07:02:29;460.97;;;159.93;;
8407;SDS011;4241;48.452;9.216;2022-10-17T07:04:58;455.17;;;154.73;;
8407;SDS011;4241;48.452;9.216;2022-10-17T07:07:24;455.73;;;155.90;;
8407;SDS011;4241;48.452;9.216;2022-10-17T07:09:51;455.63;;;155.83;;
8407;SDS011;4241;48.452;9.216;2022-10-17T07:12:18;459.93;;;160.30;;
8407;SDS011;4241;48.452;9.216;2022-10-17T07:14:45;456.30;;;157.30;;
8407;SDS011;4241;48.452;9.216;2022-10-17T07:17:14;453.10;;;153.10;;
8407;SDS011;4241;48.452;9.216;2022-10-17T07:19:41;455.87;;;156.10;;
8407;SDS011;4241;48.452;9.216;2022-10-17T07:22:09;457.13;;;158.00;;
8407;SDS011;4241;48.452;9.216;2022-10-17T07:24:36;458.37;;;159.80;;
8407;SDS011;4241;48.452;9.216;2022-10-17T07:27:03;459.30;;;159.30;;
8407;SDS011;4241;48.452;9.216;2022-10-17T07:29:30;465.60;;;165.13;;
8407;SDS011;4241;48.452;9.216;2022-10-17T07:31:57;455.77;;;156.00;;
8407;SDS011;4241;48.452;9.216;2022-10-17T07:34:24;454.90;;;156.07;;
8407;SDS011;4241;48.452;9.216;2022-10-17T07:36:54;457.77;;;159.03;;
8407;SDS011;4241;48.452;9.216;2022-10-17T07:39:23;459.80;;;159.90;;
8407;SDS011;4241;48.452;9.216;2022-10-17T07:41:49;462.97;;;162.73;;
8407;SDS011;4241;48.452;9.216;2022-10-17T07:44:16;459.03;;;159.57;;
8407;SDS011;4241;48.452;9.216;2022-10-17T07:46:43;456.30;;;157.17;;
8407;SDS011;4241;48.452;9.216;2022-10-17T07:49:10;458.20;;;158.97;;
8407;SDS011;4241;48.452;9.216;2022-10-17T07:51:37;458.07;;;157.87;;
8407;SDS011;4241;48.452;9.216;2022-10-17T07:54:04;458.87;;;159.10;;
8407;SDS011;4241;48.452;9.216;2022-10-17T07:56:32;463.03;;;164.33;;
8407;SDS011;4241;48.452;9.216;2022-10-17T07:58:59;459.30;;;161.80;;
8407;SDS011;4241;48.452;9.216;2022-10-17T08:01:26;459.70;;;162.67;;
8407;SDS011;4241;48.452;9.216;2022-10-17T08:03:53;459.50;;;162.50;;
8407;SDS011;4241;48.452;9.216;2022-10-17T08:06:20;461.40;;;162.47;;
8407;SDS011;4241;48.452;9.216;2022-10-17T08:08:47;458.10;;;161.07;;
8407;SDS011;4241;48.452;9.216;2022-10-17T08:11:14;465.77;;;166.73;;
8407;SDS011;4241;48.452;9.216;2022-10-17T08:13:42;459.77;;;161.93;;
8407;SDS011;4241;48.452;9.216;2022-10-17T08:16:10;462.33;;;166.40;;
8407;SDS011;4241;48.452;9.216;2022-10-17T08:18:38;464.90;;;169.47;;
8407;SDS011;4241;48.452;9.216;2022-10-17T08:21:06;463.50;;;169.27;;
8407;SDS011;4241;48.452;9.216;2022-10-17T08:23:34;462.30;;;168.93;;
8407;SDS011;4241;48.452;9.216;2022-10-17T08:26:02;462.97;;;168.67;;
8407;SDS011;4241;48.452;9.216;2022-10-17T08:28:33;465.37;;;172.03;;
8407;SDS011;4241;48.452;9.216;2022-10-17T08:31:05;462.73;;;170.03;;
8407;SDS011;4241;48.452;9.216;2022-10-17T08:33:33;465.47;;;174.27;;
8407;SDS011;4241;48.452;9.216;2022-10-17T08:36:00;465.47;;;174.47;;
8407;SDS011;4241;48.452;9.216;2022-10-17T08:38:28;468.07;;;179.07;;
8407;SDS011;4241;48.452;9.216;2022-10-17T08:40:56;472.00;;;181.93;;
8407;SDS011;4241;48.452;9.216;2022-10-17T08:43:33;466.70;;;177.40;;
8407;SDS011;4241;48.452;9.216;2022-10-17T08:46:11;466.23;;;178.23;;
8407;SDS011;4241;48.452;9.216;2022-10-17T08:48:39;469.67;;;181.87;;
8407;SDS011;4241;48.452;9.216;2022-10-17T08:51:10;469.23;;;183.30;;
8407;SDS011;4241;48.452;9.216;2022-10-17T08:53:43;469.27;;;183.50;;
8407;SDS011;4241;48.452;9.216;2022-10-17T08:56:16;473.33;;;187.87;;
8407;SDS011;4241;48.452;9.216;2022-10-17T08:58:44;470.87;;;188.20;;
8407;SDS011;4241;48.452;9.216;2022-10-17T09:01:16;469.03;;;186.97;;
8407;SDS011;4241;48.452;9.216;2022-10-17T09:04:10;482.70;;;199.97;;
8407;SDS011;4241;48.452;9.216;2022-10-17T09:06:58;471.30;;;191.63;;
8407;SDS011;4241;48.452;9.216;2022-10-17T09:09:32;470.77;;;191.87;;
8407;SDS011;4241;48.452;9.216;2022-10-17T09:12:10;472.80;;;193.93;;
8407;SDS011;4241;48.452;9.216;2022-10-17T09:14:49;472.57;;;195.60;;
8407;SDS011;4241;48.452;9.216;2022-10-17T09:17:27;475.20;;;199.43;;
8407;SDS011;4241;48.452;9.216;2022-10-17T09:20:05;476.40;;;202.93;;
8407;SDS011;4241;48.452;9.216;2022-10-17T09:22:37;476.27;;;204.20;;
8407;SDS011;4241;48.452;9.216;2022-10-17T09:25:10;484.07;;;213.53;;
8407;SDS011;4241;48.452;9.216;2022-10-17T09:27:40;481.50;;;214.27;;
8407;SDS011;4241;48.452;9.216;2022-10-17T09:30:31;479.07;;;214.23;;
8407;SDS011;4241;48.452;9.216;2022-10-17T09:33:08;479.93;;;214.67;;
8407;SDS011;4241;48.452;9.216;2022-10-17T09:35:37;481.20;;;220.27;;
8407;SDS011;4241;48.452;9.216;2022-10-17T09:38:06;485.67;;;228.73;;
8407;SDS011;4241;48.452;9.216;2022-10-17T09:40:40;483.33;;;229.40;;
8407;SDS011;4241;48.452;9.216;2022-10-17T09:43:07;486.70;;;236.47;;
8407;SDS011;4241;48.452;9.216;2022-10-17T09:45:39;491.83;;;241.87;;
8407;SDS011;4241;48.452;9.216;2022-10-17T09:48:13;490.33;;;243.97;;
8407;SDS011;4241;48.452;9.216;2022-10-17T09:50:48;486.73;;;243.73;;
8407;SDS011;4241;48.452;9.216;2022-10-17T09:53:17;487.37;;;246.10;;
8407;SDS011;4241;48.452;9.216;2022-10-17T09:55:48;490.90;;;248.80;;
8407;SDS011;4241;48.452;9.216;2022-10-17T09:58:19;489.10;;;250.50;;
8407;SDS011;4241;48.452;9.216;2022-10-17T10:00:47;490.53;;;252.70;;
8407;SDS011;4241;48.452;9.216;2022-10-17T10:03:16;495.53;;;263.33;;
8407;SDS011;4241;48.452;9.216;2022-10-17T10:05:58;491.97;;;261.33;;
8407;SDS011;4241;48.452;9.216;2022-10-17T10:08:27;495.10;;;267.20;;
8407;SDS011;4241;48.452;9.216;2022-10-17T10:10:58;493.57;;;269.60;;
8407;SDS011;4241;48.452;9.216;2022-10-17T10:13:27;497.00;;;274.63;;
8407;SDS011;4241;48.452;9.216;2022-10-17T10:15:54;497.37;;;281.07;;
8407;SDS011;4241;48.452;9.216;2022-10-17T10:18:41;495.70;;;277.13;;
8407;SDS011;4241;48.452;9.216;2022-10-17T10:21:09;496.27;;;281.10;;
8407;SDS011;4241;48.452;9.216;2022-10-17T10:23:38;496.23;;;285.00;;
8407;SDS011;4241;48.452;9.216;2022-10-17T10:26:13;497.17;;;287.77;;
8407;SDS011;4241;48.452;9.216;2022-10-17T10:28:50;497.83;;;289.57;;
8407;SDS011;4241;48.452;9.216;2022-10-17T10:31:24;499.03;;;293.53;;
8407;SDS011;4241;48.452;9.216;2022-10-17T10:34:02;502.03;;;302.60;;
8407;SDS011;4241;48.452;9.216;2022-10-17T10:36:43;500.13;;;303.17;;
8407;SDS011;4241;48.452;9.216;2022-10-17T10:39:24;502.87;;;309.03;;
8407;SDS011;4241;48.452;9.216;2022-10-17T10:42:06;499.53;;;306.47;;
8407;SDS011;4241;48.452;9.216;2022-10-17T10:44:42;500.83;;;305.73;;
8407;SDS011;4241;48.452;9.216;2022-10-17T10:47:14;502.47;;;313.07;;
8407;SDS011;4241;48.452;9.216;2022-10-17T10:49:48;505.17;;;319.07;;
8407;SDS011;4241;48.452;9.216;2022-10-17T10:52:29;508.00;;;328.63;;
8407;SDS011;4241;48.452;9.216;2022-10-17T10:55:04;503.67;;;319.90;;
8407;SDS011;4241;48.452;9.216;2022-10-17T10:57:40;506.67;;;328.13;;
8407;SDS011;4241;48.452;9.216;2022-10-17T11:00:11;505.40;;;328.87;;
8407;SDS011;4241;48.452;9.216;2022-10-17T11:02:43;509.87;;;335.57;;
8407;SDS011;4241;48.452;9.216;2022-10-17T11:05:20;514.77;;;340.40;;
8407;SDS011;4241;48.452;9.216;2022-10-17T11:08:02;507.30;;;334.00;;
8407;SDS011;4241;48.452;9.216;2022-10-17T11:10:36;507.87;;;336.53;;
8407;SDS011;4241;48.452;9.216;2022-10-17T11:13:09;507.93;;;335.10;;
8407;SDS011;4241;48.452;9.216;2022-10-17T11:15:43;506.80;;;337.10;;
8407;SDS011;4241;48.452;9.216;2022-10-17T11:18:15;508.17;;;339.47;;
8407;SDS011;4241;48.452;9.216;2022-10-17T11:20:49;506.53;;;338.90;;
8407;SDS011;4241;48.452;9.216;2022-10-17T11:23:22;508.07;;;338.83;;
8407;SDS011;4241;48.452;9.216;2022-10-17T11:25:54;506.40;;;339.43;;
8407;SDS011;4241;48.452;9.216;2022-10-17T11:28:24;506.60;;;339.07;;
8407;SDS011;4241;48.452;9.216;2022-10-17T11:30:53;508.93;;;339.20;;
8407;SDS011;4241;48.452;9.216;2022-10-17T11:33:25;507.67;;;334.60;;
8407;SDS011;4241;48.452;9.216;2022-10-17T11:35:58;510.10;;;340.53;;
8407;SDS011;4241;48.452;9.216;2022-10-17T11:38:35;507.50;;;334.13;;
8407;SDS011;4241;48.452;9.216;2022-10-17T11:41:09;505.07;;;329.97;;
8407;SDS011;4241;48.452;9.216;2022-10-17T11:43:41;505.43;;;331.07;;
8407;SDS011;4241;48.452;9.216;2022-10-17T11:46:15;505.00;;;328.30;;
8407;SDS011;4241;48.452;9.216;2022-10-17T11:48:54;509.93;;;334.47;;
8407;SDS011;4241;48.452;9.216;2022-10-17T11:51:27;509.00;;;329.83;;
8407;SDS011;4241;48.452;9.216;2022-10-17T11:53:56;506.07;;;328.33;;
8407;SDS011;4241;48.452;9.216;2022-10-17T11:56:31;504.73;;;323.90;;
8407;SDS011;4241;48.452;9.216;2022-10-17T11:59:11;505.27;;;324.77;;
8407;SDS011;4241;48.452;9.216;2022-10-17T12:02:00;503.37;;;320.30;;
8407;SDS011;4241;48.452;9.216;2022-10-17T12:04:37;503.57;;;317.33;;
8407;SDS011;4241;48.452;9.216;2022-10-17T12:07:21;503.90;;;316.97;;
8407;SDS011;4241;48.452;9.216;2022-10-17T12:09:56;503.17;;;312.87;;
8407;SDS011;4241;48.452;9.216;2022-10-17T12:12:28;509.27;;;316.93;;
8407;SDS011;4241;48.452;9.216;2022-10-17T12:17:55;499.60;;;303.63;;
8407;SDS011;4241;48.452;9.216;2022-10-17T12:20:27;503.50;;;307.53;;
8407;SDS011;4241;48.452;9.216;2022-10-17T12:22:59;502.90;;;304.47;;
8407;SDS011;4241;48.452;9.216;2022-10-17T12:25:31;501.40;;;299.83;;
8407;SDS011;4241;48.452;9.216;2022-10-17T12:28:09;502.70;;;302.47;;
8407;SDS011;4241;48.452;9.216;2022-10-17T12:30:48;499.10;;;295.87;;
8407;SDS011;4241;48.452;9.216;2022-10-17T12:33:18;496.83;;;289.27;;
8407;SDS011;4241;48.452;9.216;2022-10-17T12:35:47;498.73;;;293.07;;
8407;SDS011;4241;48.452;9.216;2022-10-17T12:38:21;498.57;;;289.73;;
8407;SDS011;4241;48.452;9.216;2022-10-17T12:40:53;498.40;;;289.53;;
8407;SDS011;4241;48.452;9.216;2022-10-17T12:43:32;497.40;;;289.37;;
8407;SDS011;4241;48.452;9.216;2022-10-17T12:49:20;495.43;;;280.67;;
8407;SDS011;4241;48.452;9.216;2022-10-17T12:52:15;499.87;;;288.03;;
8407;SDS011;4241;48.452;9.216;2022-10-17T12:54:46;496.53;;;287.47;;
8407;SDS011;4241;48.452;9.216;2022-10-17T12:57:19;503.13;;;288.47;;
8407;SDS011;4241;48.452;9.216;2022-10-17T12:59:49;495.80;;;283.70;;
8407;SDS011;4241;48.452;9.216;2022-10-17T13:02:19;500.17;;;289.53;;
8407;SDS011;4241;48.452;9.216;2022-10-17T13:04:49;499.43;;;286.77;;
8407;SDS011;4241;48.452;9.216;2022-10-17T13:07:21;501.67;;;284.57;;
8407;SDS011;4241;48.452;9.216;2022-10-17T13:09:49;500.43;;;284.43;;
8407;SDS011;4241;48.452;9.216;2022-10-17T13:12:17;505.47;;;295.00;;
8407;SDS011;4241;48.452;9.216;2022-10-17T13:14:49;500.50;;;287.53;;
8407;SDS011;4241;48.452;9.216;2022-10-17T13:17:22;498.90;;;287.27;;
8407;SDS011;4241;48.452;9.216;2022-10-17T13:19:50;498.50;;;285.63;;
8407;SDS011;4241;48.452;9.216;2022-10-17T13:22:17;504.33;;;290.17;;
8407;SDS011;4241;48.452;9.216;2022-10-17T13:24:45;499.00;;;281.47;;
8407;SDS011;4241;48.452;9.216;2022-10-17T13:27:25;497.00;;;281.30;;
8407;SDS011;4241;48.452;9.216;2022-10-17T13:29:53;496.03;;;279.00;;
8407;SDS011;4241;48.452;9.216;2022-10-17T13:32:21;509.07;;;292.10;;
8407;SDS011;4241;48.452;9.216;2022-10-17T13:35:05;501.70;;;287.77;;
8407;SDS011;4241;48.452;9.216;2022-10-17T13:37:34;499.20;;;284.67;;
8407;SDS011;4241;48.452;9.216;2022-10-17T13:40:02;495.87;;;286.53;;
8407;SDS011;4241;48.452;9.216;2022-10-17T13:42:35;503.33;;;288.87;;
8407;SDS011;4241;48.452;9.216;2022-10-17T13:45:12;496.87;;;285.47;;
8407;SDS011;4241;48.452;9.216;2022-10-17T13:47:45;498.77;;;285.27;;
8407;SDS011;4241;48.452;9.216;2022-10-17T13:50:15;496.70;;;283.67;;
8407;SDS011;4241;48.452;9.216;2022-10-17T13:55:51;500.47;;;285.10;;
8407;SDS011;4241;48.452;9.216;2022-10-17T13:58:20;495.43;;;280.70;;
8407;SDS011;4241;48.452;9.216;2022-10-17T14:00:47;494.40;;;281.30;;
8407;SDS011;4241;48.452;9.216;2022-10-17T14:03:16;494.83;;;280.27;;
8407;SDS011;4241;48.452;9.216;2022-10-17T14:06:00;496.07;;;282.40;;
8407;SDS011;4241;48.452;9.216;2022-10-17T14:08:31;495.37;;;279.83;;
8407;SDS011;4241;48.452;9.216;2022-10-17T14:10:59;501.33;;;286.60;;
8407;SDS011;4241;48.452;9.216;2022-10-17T14:13:28;496.13;;;281.13;;
8407;SDS011;4241;48.452;9.216;2022-10-17T14:16:00;497.50;;;286.50;;
8407;SDS011;4241;48.452;9.216;2022-10-17T14:18:28;499.70;;;287.67;;
8407;SDS011;4241;48.452;9.216;2022-10-17T14:20:58;496.53;;;281.60;;
8407;SDS011;4241;48.452;9.216;2022-10-17T14:23:30;498.63;;;285.47;;
8407;SDS011;4241;48.452;9.216;2022-10-17T14:26:05;498.70;;;284.60;;
8407;SDS011;4241;48.452;9.216;2022-10-17T14:28:35;496.70;;;283.60;;
8407;SDS011;4241;48.452;9.216;2022-10-17T14:31:20;496.43;;;283.23;;
8407;SDS011;4241;48.452;9.216;2022-10-17T14:33:54;498.10;;;283.33;;
8407;SDS011;4241;48.452;9.216;2022-10-17T14:36:31;497.73;;;282.77;;
8407;SDS011;4241;48.452;9.216;2022-10-17T14:39:00;497.73;;;282.03;;
8407;SDS011;4241;48.452;9.216;2022-10-17T14:41:29;497.57;;;283.33;;
8407;SDS011;4241;48.452;9.216;2022-10-17T14:44:00;501.27;;;283.77;;
8407;SDS011;4241;48.452;9.216;2022-10-17T14:46:30;495.70;;;276.07;;
8407;SDS011;4241;48.452;9.216;2022-10-17T14:49:02;496.47;;;277.43;;
8407;SDS011;4241;48.452;9.216;2022-10-17T14:54:44;496.73;;;273.13;;
8407;SDS011;4241;48.452;9.216;2022-10-17T14:57:13;496.00;;;277.53;;
8407;SDS011;4241;48.452;9.216;2022-10-17T14:59:43;494.30;;;276.83;;